Time;durP1;ratioP1;P1;durP2;ratioP2;P2;SDS_P1;SDS_P2;PMS_P1;PMS_P2;Temp;Humidity;BMP_temperature;BMP_pressure;BME280_temperature;BME280_humidity;BME280_pressure;Samples;Min_cycle;Max_cycle;Signal;HPM_P1;HPM_P2
2021/01/15 00:01:19;;;;;;;0.20;0.20;;;;;;;-4.85;100.00;99628.03;1743282;80;21143;-49
2021/01/15 00:03:47;;;;;;;0.10;0.10;;;;;;;-4.90;100.00;99630.47;1780849;80;21135;-49
2021/01/15 00:06:20;;;;;;;0.20;0.20;;;;;;;-4.94;100.00;99631.91;1773404;80;21118;-48
2021/01/15 00:08:48;;;;;;;0.53;0.53;;;;;;;-5.00;100.00;99634.02;1782233;80;21197;-48
2021/01/15 00:11:23;;;;;;;2.02;0.78;;;;;;;-5.05;100.00;99641.78;1782502;79;21150;-48
2021/01/15 00:13:51;;;;;;;0.65;0.65;;;;;;;-5.10;100.00;99636.23;1782741;80;21139;-49
2021/01/15 00:16:24;;;;;;;0.85;0.85;;;;;;;-5.12;100.00;99628.94;1751325;81;21134;-48
2021/01/15 00:18:53;;;;;;;0.10;0.10;;;;;;;-5.13;100.00;99633.45;1772034;80;21133;-48
2021/01/15 00:21:26;;;;;;;0.10;0.10;;;;;;;-5.11;100.00;99637.27;1771619;80;21814;-48
2021/01/15 00:23:56;;;;;;;0.10;0.10;;;;;;;-5.07;100.00;99633.16;1771633;80;21153;-48
2021/01/15 00:26:25;;;;;;;0.10;0.10;;;;;;;-5.02;100.00;99632.06;1771787;80;21141;-48
2021/01/15 00:28:52;;;;;;;0.62;0.62;;;;;;;-4.98;100.00;99634.13;1771845;80;21122;-49
2021/01/15 00:31:22;;;;;;;0.03;0.03;;;;;;;-4.93;100.00;99625.55;1771707;80;21154;-49
2021/01/15 00:33:50;;;;;;;0.23;0.23;;;;;;;-4.89;100.00;99633.47;1720611;81;21151;-48
2021/01/15 00:36:17;;;;;;;0.00;0.00;;;;;;;-4.85;100.00;99624.03;1772092;80;21596;-49
2021/01/15 00:38:45;;;;;;;0.30;0.30;;;;;;;-4.81;100.00;99625.29;1717979;80;21453;-49
2021/01/15 00:41:12;;;;;;;0.53;0.40;;;;;;;-4.78;100.00;99623.55;1772053;80;21157;-48
2021/01/15 00:43:40;;;;;;;0.10;0.10;;;;;;;-4.73;100.00;99631.47;1771947;80;21103;-50
2021/01/15 00:46:13;;;;;;;0.03;0.03;;;;;;;-4.72;100.00;99630.44;1772042;80;21174;-50
2021/01/15 00:48:41;;;;;;;0.35;0.35;;;;;;;-4.73;100.00;99628.28;1771925;80;21143;-50
2021/01/15 00:51:09;;;;;;;0.25;0.25;;;;;;;-4.77;100.00;99629.21;1771874;80;21140;-49
2021/01/15 00:53:37;;;;;;;0.13;0.13;;;;;;;-4.79;100.00;99630.44;1743726;80;21445;-50
2021/01/15 00:56:06;;;;;;;0.00;0.00;;;;;;;-4.84;100.00;99623.03;1771821;80;21158;-49
2021/01/15 00:58:33;;;;;;;1.35;0.85;;;;;;;-4.86;100.00;99624.25;1771982;80;21154;-49
2021/01/15 01:01:01;;;;;;;0.47;0.47;;;;;;;-4.91;100.00;99616.84;1772099;80;21114;-49
2021/01/15 01:03:31;;;;;;;0.00;0.00;;;;;;;-4.93;100.00;99622.88;1770339;80;21170;-49
2021/01/15 01:05:58;;;;;;;0.05;0.05;;;;;;;-4.95;100.00;99623.59;1771935;80;20995;-50
2021/01/15 01:08:26;;;;;;;0.17;0.17;;;;;;;-4.98;100.00;99621.33;1768998;80;21549;-49
2021/01/15 01:10:53;;;;;;;0.20;0.20;;;;;;;-5.02;100.00;99624.91;1766714;81;21580;-50
2021/01/15 01:13:21;;;;;;;0.62;0.62;;;;;;;-5.06;100.00;99622.84;1755910;81;21612;-50
2021/01/15 01:15:48;;;;;;;0.10;0.10;;;;;;;-5.11;100.00;99629.27;1766937;81;21164;-49
2021/01/15 01:18:15;;;;;;;0.33;0.33;;;;;;;-5.17;100.00;99626.05;1755991;81;21142;-49
2021/01/15 01:20:43;;;;;;;1.02;1.02;;;;;;;-5.21;100.00;99631.77;1767111;81;21118;-50
2021/01/15 01:23:10;;;;;;;0.10;0.10;;;;;;;-5.27;100.00;99622.41;1755881;81;21107;-49
2021/01/15 01:25:37;;;;;;;0.10;0.10;;;;;;;-5.30;100.00;99631.61;1766938;81;21477;-49
2021/01/15 01:28:05;;;;;;;0.10;0.10;;;;;;;-5.38;100.00;99626.45;1755827;81;21151;-49
2021/01/15 01:30:32;;;;;;;0.00;0.00;;;;;;;-5.44;100.00;99620.56;1766978;81;21114;-50
2021/01/15 01:32:59;;;;;;;0.10;0.10;;;;;;;-5.51;100.00;99623.20;1755886;81;21134;-49
2021/01/15 01:35:27;;;;;;;0.82;0.33;;;;;;;-5.56;100.00;99622.13;1767092;81;21126;-49
2021/01/15 01:37:54;;;;;;;0.40;0.40;;;;;;;-5.62;100.00;99625.88;1755955;81;21572;-50
2021/01/15 01:40:22;;;;;;;0.00;0.00;;;;;;;-5.64;100.00;99627.94;1766988;81;21588;-49
2021/01/15 01:42:49;;;;;;;0.30;0.30;;;;;;;-5.62;100.00;99633.86;1749775;81;21529;-49
2021/01/15 01:45:17;;;;;;;0.23;0.23;;;;;;;-5.58;100.00;99630.84;1732667;81;21098;-50
2021/01/15 01:47:44;;;;;;;0.33;0.33;;;;;;;-5.56;100.00;99632.77;1735146;82;21134;-49
2021/01/15 01:50:12;;;;;;;0.70;0.55;;;;;;;-5.54;100.00;99634.73;1735095;81;21560;-50
2021/01/15 01:52:39;;;;;;;0.05;0.05;;;;;;;-5.53;100.00;99637.73;1708387;82;21111;-49
2021/01/15 01:55:08;;;;;;;0.68;0.68;;;;;;;-5.51;100.00;99633.04;1706862;82;20998;-49
2021/01/15 01:57:35;;;;;;;0.30;0.30;;;;;;;-5.47;100.00;99639.59;1734858;82;21133;-49
2021/01/15 02:00:05;;;;;;;0.55;0.55;;;;;;;-5.44;100.00;99637.87;1735003;82;21273;-50
2021/01/15 02:02:34;;;;;;;1.75;0.50;;;;;;;-5.40;100.00;99645.28;1706453;82;21176;-49
2021/01/15 02:05:03;;;;;;;0.10;0.10;;;;;;;-5.36;100.00;99632.41;1751410;81;21142;-50
2021/01/15 02:07:30;;;;;;;0.37;0.37;;;;;;;-5.33;100.00;99634.67;1765144;81;21169;-49
2021/01/15 02:10:12;;;;;;;0.00;0.00;;;;;;;-5.30;100.00;99631.61;1761830;81;21135;-49
2021/01/15 02:12:48;;;;;;;1.00;0.90;;;;;;;-5.27;100.00;99631.21;1762155;81;21449;-50
2021/01/15 02:15:22;;;;;;;0.00;0.00;;;;;;;-5.23;100.00;99633.81;1762044;81;21264;-49
2021/01/15 02:17:53;;;;;;;0.10;0.10;;;;;;;-5.20;100.00;99634.73;1773231;80;21186;-49
2021/01/15 02:20:47;;;;;;;0.68;0.68;;;;;;;-5.16;100.00;99638.36;1793506;80;21143;-49
2021/01/15 02:23:38;;;;;;;0.17;0.17;;;;;;;-5.13;100.00;99636.63;1789457;80;21126;-49
2021/01/15 02:26:23;;;;;;;0.40;0.40;;;;;;;-5.11;100.00;99635.93;1793225;80;21179;-50
2021/01/15 02:29:19;;;;;;;0.10;0.10;;;;;;;-5.09;100.00;99635.23;1793071;80;21534;-50
2021/01/15 02:32:09;;;;;;;0.00;0.00;;;;;;;-5.08;100.00;99628.87;1793172;80;21150;-50
2021/01/15 02:34:45;;;;;;;0.20;0.20;;;;;;;-5.05;100.00;99631.12;1793253;80;21142;-49
2021/01/15 02:37:27;;;;;;;0.25;0.25;;;;;;;-5.04;100.00;99633.61;1792269;80;21115;-50
2021/01/15 02:40:24;;;;;;;0.30;0.30;;;;;;;-5.01;100.00;99625.21;1766803;80;21115;-49
2021/01/15 02:42:52;;;;;;;0.10;0.10;;;;;;;-5.01;100.00;99625.21;1792678;79;21150;-50
2021/01/15 02:45:19;;;;;;;0.10;0.10;;;;;;;-5.01;100.00;99626.55;1766621;80;21625;-50
2021/01/15 02:47:50;;;;;;;0.42;0.42;;;;;;;-5.00;100.00;99622.84;1793266;80;21151;-49
2021/01/15 02:50:23;;;;;;;1.42;1.32;;;;;;;-5.00;100.00;99628.17;1793214;80;21115;-49
2021/01/15 02:52:51;;;;;;;1.27;0.82;;;;;;;-5.00;100.00;99630.84;1779023;80;21147;-49
2021/01/15 02:55:18;;;;;;;0.53;0.53;;;;;;;-5.01;100.00;99631.05;1761707;81;21167;-49
2021/01/15 02:57:46;;;;;;;1.95;1.15;;;;;;;-5.02;100.00;99632.91;1761762;80;21142;-49
2021/01/15 03:00:19;;;;;;;0.10;0.10;;;;;;;-5.01;100.00;99635.05;1777968;80;21130;-49
2021/01/15 03:03:22;;;;;;;0.00;0.00;;;;;;;-5.02;100.00;99640.90;1764292;81;21166;-49
2021/01/15 03:06:08;;;;;;;0.13;0.05;;;;;;;-5.01;100.00;99636.38;1764282;81;21110;-49
2021/01/15 03:08:35;;;;;;;0.10;0.10;;;;;;;-5.01;100.00;99637.20;1764028;81;21241;-49
2021/01/15 03:11:03;;;;;;;0.30;0.30;;;;;;;-4.98;100.00;99635.98;1756290;80;21155;-49
2021/01/15 03:13:30;;;;;;;0.13;0.13;;;;;;;-4.96;100.00;99631.28;1737220;81;21131;-49
2021/01/15 03:16:02;;;;;;;0.45;0.45;;;;;;;-4.94;100.00;99635.09;1764194;81;21155;-49
2021/01/15 03:18:31;;;;;;;0.68;0.68;;;;;;;-4.93;100.00;99622.88;1780491;80;21474;-50
2021/01/15 03:21:01;;;;;;;0.40;0.40;;;;;;;-4.91;100.00;99627.51;1780429;80;21191;-49
2021/01/15 03:23:29;;;;;;;0.75;0.75;;;;;;;-4.90;99.96;99633.14;1738522;81;21134;-50
2021/01/15 03:25:56;;;;;;;0.55;0.55;;;;;;;-4.88;99.95;99619.63;1768546;81;21129;-50
2021/01/15 03:28:24;;;;;;;0.20;0.20;;;;;;;-4.86;99.96;99618.41;1771693;81;21134;-49
2021/01/15 03:30:52;;;;;;;0.50;0.50;;;;;;;-4.84;99.93;99627.03;1771770;81;21454;-50
2021/01/15 03:33:19;;;;;;;0.23;0.23;;;;;;;-4.83;99.87;99618.00;1771557;81;21442;-50
2021/01/15 03:35:47;;;;;;;3.30;0.95;;;;;;;-4.82;99.84;99622.81;1771455;81;21162;-49
2021/01/15 03:38:15;;;;;;;0.53;0.50;;;;;;;-4.79;99.83;99626.44;1771601;81;21154;-49
2021/01/15 03:40:44;;;;;;;1.35;0.40;;;;;;;-4.79;99.86;99627.25;1771524;81;21488;-50
2021/01/15 03:43:21;;;;;;;0.55;0.55;;;;;;;-4.76;99.84;99633.51;1771447;81;21134;-49
2021/01/15 03:45:49;;;;;;;0.30;0.30;;;;;;;-4.73;99.81;99634.14;1771619;81;21667;-50
2021/01/15 03:48:17;;;;;;;0.35;0.35;;;;;;;-4.73;99.78;99632.28;1771580;81;21178;-49
2021/01/15 03:50:44;;;;;;;0.95;0.95;;;;;;;-4.72;99.75;99633.95;1771683;81;21169;-50
2021/01/15 03:53:13;;;;;;;0.40;0.40;;;;;;;-4.72;99.73;99641.95;1759182;81;21095;-49
2021/01/15 03:55:40;;;;;;;0.30;0.30;;;;;;;-4.70;99.75;99629.21;1740752;82;21194;-49
2021/01/15 03:58:08;;;;;;;0.35;0.33;;;;;;;-4.68;99.77;99634.36;1740911;82;21085;-49
2021/01/15 04:00:35;;;;;;;0.10;0.10;;;;;;;-4.66;99.79;99630.47;1740608;82;21178;-50
2021/01/15 04:03:05;;;;;;;0.60;0.53;;;;;;;-4.64;99.74;99627.09;1740654;82;21154;-50
2021/01/15 04:05:33;;;;;;;0.72;0.53;;;;;;;-4.61;99.74;99631.20;1725449;82;21131;-49
2021/01/15 04:08:01;;;;;;;0.23;0.23;;;;;;;-4.59;99.74;99627.83;1722351;83;21127;-49
2021/01/15 04:10:29;;;;;;;1.60;0.50;;;;;;;-4.58;99.73;99625.47;1722308;83;21159;-49
2021/01/15 04:12:56;;;;;;;0.10;0.10;;;;;;;-4.56;99.72;99628.23;1722359;82;21159;-49
2021/01/15 04:15:24;;;;;;;0.10;0.10;;;;;;;-4.54;99.70;99622.72;1722376;82;21178;-49
2021/01/15 04:17:51;;;;;;;0.00;0.00;;;;;;;-4.52;99.66;99620.67;1735851;82;21149;-50
2021/01/15 04:20:19;;;;;;;1.17;1.07;;;;;;;-4.51;99.65;99627.64;1735500;82;21169;-49
2021/01/15 04:22:47;;;;;;;0.05;0.05;;;;;;;-4.49;99.67;99624.27;1719051;83;21622;-50
2021/01/15 04:25:15;;;;;;;0.75;0.75;;;;;;;-4.47;99.66;99621.41;1752095;80;21130;-49
2021/01/15 04:27:43;;;;;;;0.05;0.05;;;;;;;-4.44;99.67;99631.15;1764090;80;21134;-49
2021/01/15 04:30:12;;;;;;;0.15;0.15;;;;;;;-4.42;99.68;99630.95;1765860;81;21126;-49
2021/01/15 04:32:49;;;;;;;0.20;0.20;;;;;;;-4.40;99.68;99631.55;1765932;81;21174;-49
2021/01/15 04:35:18;;;;;;;0.03;0.03;;;;;;;-4.39;99.68;99636.70;1765933;81;21150;-49
2021/01/15 04:37:47;;;;;;;0.65;0.50;;;;;;;-4.36;99.67;99638.95;1766059;81;21477;-49
2021/01/15 04:40:15;;;;;;;1.72;1.62;;;;;;;-4.34;99.64;99643.58;1765796;81;21166;-49
2021/01/15 04:42:45;;;;;;;0.70;0.70;;;;;;;-4.32;99.62;99646.05;1765899;81;21562;-49
2021/01/15 04:45:15;;;;;;;0.33;0.33;;;;;;;-4.29;99.60;99646.98;1765972;81;21154;-49
2021/01/15 04:47:46;;;;;;;0.10;0.10;;;;;;;-4.28;99.60;99651.28;1766087;81;21158;-49
2021/01/15 04:50:15;;;;;;;0.88;0.88;;;;;;;-4.26;99.57;99653.75;1740506;81;21987;-49
2021/01/15 04:52:52;;;;;;;0.28;0.28;;;;;;;-4.23;99.54;99658.68;1756454;81;21175;-49
2021/01/15 04:55:26;;;;;;;0.78;0.78;;;;;;;-4.23;99.53;99652.83;1734851;82;21115;-49
2021/01/15 04:57:55;;;;;;;0.62;0.62;;;;;;;-4.21;99.50;99657.45;1718228;82;21515;-49
2021/01/15 05:00:25;;;;;;;0.10;0.10;;;;;;;-4.20;99.49;99652.96;1735002;82;21155;-49
2021/01/15 05:02:53;;;;;;;0.30;0.30;;;;;;;-4.19;99.47;99655.41;1734999;81;21143;-49
2021/01/15 05:05:24;;;;;;;0.30;0.30;;;;;;;-4.18;99.44;99657.55;1733439;82;21163;-50
2021/01/15 05:08:12;;;;;;;1.22;0.40;;;;;;;-4.17;99.40;99667.22;1732709;81;21480;-49
2021/01/15 05:10:42;;;;;;;0.35;0.35;;;;;;;-4.18;99.37;99667.74;1732583;82;21167;-50
2021/01/15 05:13:14;;;;;;;1.37;0.47;;;;;;;-4.16;99.34;99676.86;1732627;82;21152;-49
2021/01/15 05:15:46;;;;;;;0.10;0.10;;;;;;;-4.16;99.34;99677.67;1732527;82;21656;-50
2021/01/15 05:18:18;;;;;;;0.78;0.78;;;;;;;-4.14;99.32;99692.16;1732693;82;21170;-49
2021/01/15 05:20:46;;;;;;;2.72;0.53;;;;;;;-4.15;99.26;99690.53;1732784;82;21131;-49
2021/01/15 05:23:15;;;;;;;0.13;0.13;;;;;;;-4.14;99.22;99698.31;1732643;81;21163;-50
2021/01/15 05:25:45;;;;;;;0.17;0.17;;;;;;;-4.16;99.07;99703.54;1757079;81;21185;-50
2021/01/15 05:28:17;;;;;;;0.10;0.10;;;;;;;-4.19;98.90;99709.29;1763023;81;21478;-49
2021/01/15 05:30:54;;;;;;;0.20;0.20;;;;;;;-4.27;98.42;99710.30;1762951;81;21127;-49
2021/01/15 05:33:22;;;;;;;0.55;0.55;;;;;;;-4.41;98.03;99716.09;1732784;81;21146;-49
2021/01/15 05:35:51;;;;;;;0.55;0.55;;;;;;;-4.53;97.95;99717.67;1762987;81;21166;-49
2021/01/15 05:38:20;;;;;;;0.72;0.72;;;;;;;-4.61;97.95;99725.86;1763116;81;21209;-49
2021/01/15 05:40:51;;;;;;;0.85;0.85;;;;;;;-4.67;97.98;99733.30;1763056;81;21159;-49
2021/01/15 05:43:27;;;;;;;0.10;0.10;;;;;;;-4.73;97.99;99734.10;1762967;81;21149;-49
2021/01/15 05:46:16;;;;;;;0.62;0.62;;;;;;;-4.74;98.15;99740.47;1759968;81;21528;-49
2021/01/15 05:48:49;;;;;;;0.55;0.55;;;;;;;-4.77;98.12;99743.83;1733459;81;21133;-49
2021/01/15 05:51:28;;;;;;;0.17;0.17;;;;;;;-4.78;98.12;99746.68;1733680;80;21171;-49
2021/01/15 05:53:56;;;;;;;0.17;0.17;;;;;;;-4.81;97.99;99757.74;1737856;81;21540;-49
2021/01/15 05:56:24;;;;;;;0.13;0.13;;;;;;;-4.83;97.94;99767.26;1737525;81;21158;-49
2021/01/15 05:59:05;;;;;;;0.20;0.20;;;;;;;-4.86;97.53;99772.17;1759479;81;21095;-49
2021/01/15 06:01:59;;;;;;;0.20;0.20;;;;;;;-4.91;97.04;99774.59;1760082;81;21127;-49
2021/01/15 06:04:36;;;;;;;0.70;0.70;;;;;;;-5.00;96.75;99780.06;1759581;81;21186;-49
2021/01/15 06:07:12;;;;;;;0.30;0.30;;;;;;;-5.06;96.58;99786.69;1752175;81;21151;-49
2021/01/15 06:09:42;;;;;;;1.17;0.45;;;;;;;-5.12;96.50;99790.93;1743420;81;21148;-49
2021/01/15 06:12:14;;;;;;;0.10;0.10;;;;;;;-5.15;96.49;99793.98;1750331;81;21145;-49
2021/01/15 06:14:56;;;;;;;0.10;0.10;;;;;;;-5.19;96.42;99793.56;1752274;81;21230;-49
2021/01/15 06:20:05;;;;;;;1.00;1.00;;;;;;;-5.21;96.44;99802.77;1828691;76;23872;-48
2021/01/15 06:22:43;;;;;;;0.30;0.30;;;;;;;-5.27;96.41;99807.00;1732973;82;21101;-47
2021/01/15 06:25:31;;;;;;;0.10;0.10;;;;;;;-5.29;96.43;99817.05;1761605;80;21176;-50
2021/01/15 06:28:01;;;;;;;0.25;0.25;;;;;;;-5.29;96.34;99818.37;1777734;80;21180;-50
2021/01/15 06:30:33;;;;;;;0.10;0.10;;;;;;;-5.29;96.42;99833.03;1777824;80;21093;-50
2021/01/15 06:33:13;;;;;;;0.10;0.10;;;;;;;-5.28;96.43;99833.84;1777892;80;21121;-50
2021/01/15 06:35:44;;;;;;;0.10;0.10;;;;;;;-5.27;96.47;99833.63;1749667;80;21133;-50
2021/01/15 06:38:16;;;;;;;0.85;0.85;;;;;;;-5.26;96.63;99825.98;1777850;80;21150;-50
2021/01/15 06:40:50;;;;;;;1.07;0.78;;;;;;;-5.25;96.47;99832.94;1777783;80;21132;-50
2021/01/15 06:43:31;;;;;;;0.30;0.30;;;;;;;-5.23;96.48;99828.77;1776828;80;21165;-49
2021/01/15 06:46:00;;;;;;;0.40;0.40;;;;;;;-5.20;96.45;99834.52;1760058;80;21573;-50
2021/01/15 06:48:37;;;;;;;0.28;0.28;;;;;;;-5.19;96.27;99842.03;1724771;83;21438;-49
2021/01/15 06:51:08;;;;;;;1.45;1.17;;;;;;;-5.19;96.20;99841.52;1733179;81;21198;-48
2021/01/15 06:53:38;;;;;;;0.10;0.10;;;;;;;-5.16;96.27;99836.83;1732411;82;21177;-47
2021/01/15 06:56:06;;;;;;;0.65;0.65;;;;;;;-5.15;96.07;99841.13;1724442;82;21211;-48
2021/01/15 06:58:43;;;;;;;0.05;0.05;;;;;;;-5.13;95.92;99853.75;1730972;82;21437;-48
2021/01/15 07:01:37;;;;;;;0.40;0.40;;;;;;;-5.13;95.55;99855.08;1726346;81;21179;-48
2021/01/15 07:04:27;;;;;;;0.10;0.10;;;;;;;-5.14;95.42;99855.59;1724412;83;21236;-48
2021/01/15 07:07:11;;;;;;;0.15;0.15;;;;;;;-5.10;95.44;99865.34;1724556;83;21162;-48
2021/01/15 07:09:40;;;;;;;0.20;0.20;;;;;;;-5.06;95.42;99866.63;1712213;83;21109;-48
2021/01/15 07:12:11;;;;;;;0.10;0.10;;;;;;;-5.04;95.13;99873.92;1746305;81;21139;-48
2021/01/15 07:14:57;;;;;;;1.70;1.60;;;;;;;-5.03;95.02;99868.90;1710375;83;21125;-48
2021/01/15 07:17:38;;;;;;;0.15;0.15;;;;;;;-5.01;95.03;99864.20;1704207;83;21186;-48
2021/01/15 07:20:17;;;;;;;0.00;0.00;;;;;;;-5.01;94.89;99859.69;1734642;81;21469;-47
2021/01/15 07:22:52;;;;;;;0.10;0.10;;;;;;;-4.97;94.96;99864.12;1735034;82;21133;-48
2021/01/15 07:25:20;;;;;;;0.20;0.20;;;;;;;-4.92;94.90;99868.39;1735722;81;21633;-48
2021/01/15 07:27:48;;;;;;;3.85;1.05;;;;;;;-4.90;94.58;99870.33;1711679;82;21130;-48
2021/01/15 07:30:27;;;;;;;0.72;0.72;;;;;;;-4.90;94.29;99876.98;1705293;84;21592;-48
2021/01/15 07:32:56;;;;;;;0.62;0.62;;;;;;;-4.92;94.30;99876.38;1713869;82;21189;-47
2021/01/15 07:35:26;;;;;;;0.35;0.35;;;;;;;-4.88;94.48;99881.63;1732935;81;21547;-48
2021/01/15 07:38:13;;;;;;;1.37;1.37;;;;;;;-4.86;94.24;99883.59;1706504;82;21553;-48
2021/01/15 07:40:41;;;;;;;1.60;0.62;;;;;;;-4.88;94.13;99881.63;1704726;82;21142;-48
2021/01/15 07:43:30;;;;;;;0.33;0.33;;;;;;;-4.88;94.20;99888.29;1732976;82;21220;-47
2021/01/15 07:46:01;;;;;;;0.00;0.00;;;;;;;-4.87;94.28;99895.28;1709368;82;21031;-47
2021/01/15 07:48:28;;;;;;;0.85;0.85;;;;;;;-4.89;93.92;99896.50;1705939;84;21148;-47
2021/01/15 07:50:56;;;;;;;0.68;0.68;;;;;;;-4.92;93.78;99900.38;1706325;84;21150;-47
2021/01/15 07:53:38;;;;;;;0.30;0.30;;;;;;;-4.92;93.87;99899.03;1734401;82;21224;-47
2021/01/15 07:56:06;;;;;;;0.10;0.10;;;;;;;-4.94;93.61;99898.91;1734315;82;21161;-48
2021/01/15 07:58:39;;;;;;;0.08;0.08;;;;;;;-4.95;93.66;99895.41;1734429;82;21153;-47
2021/01/15 08:01:12;;;;;;;0.10;0.10;;;;;;;-4.93;93.67;99899.22;1706870;83;21122;-47
2021/01/15 08:03:45;;;;;;;0.20;0.20;;;;;;;-4.93;93.53;99904.03;1734705;82;21142;-48
2021/01/15 08:06:16;;;;;;;0.13;0.13;;;;;;;-4.93;93.29;99904.03;1679749;82;21632;-48
2021/01/15 08:09:05;;;;;;;0.95;0.88;;;;;;;-4.95;93.16;99912.72;1734377;82;21169;-47
2021/01/15 08:11:34;;;;;;;1.00;1.00;;;;;;;-5.00;92.95;99910.63;1706539;84;21539;-47
2021/01/15 08:14:22;;;;;;;0.10;0.10;;;;;;;-5.03;92.78;99918.19;1730896;82;21350;-47
2021/01/15 08:16:49;;;;;;;0.10;0.10;;;;;;;-5.08;92.27;99923.27;1709739;82;21151;-47
2021/01/15 08:19:19;;;;;;;0.00;0.00;;;;;;;-5.14;91.60;99928.01;1736700;81;21171;-47
2021/01/15 08:21:46;;;;;;;1.90;1.12;;;;;;;-5.20;91.38;99929.60;1720545;81;21790;-47
2021/01/15 08:24:14;;;;;;;0.10;0.10;;;;;;;-5.24;91.18;99932.34;1725017;82;21189;-47
2021/01/15 08:26:57;;;;;;;0.10;0.10;;;;;;;-5.27;91.07;99943.35;1723347;83;21405;-47
2021/01/15 08:29:28;;;;;;;0.45;0.45;;;;;;;-5.29;90.70;99938.23;1679068;84;21557;-47
2021/01/15 08:31:57;;;;;;;0.00;0.00;;;;;;;-5.29;90.46;99942.71;1697443;84;21182;-47
2021/01/15 08:34:33;;;;;;;0.35;0.35;;;;;;;-5.32;90.31;99949.24;1697451;84;21554;-47
2021/01/15 08:37:03;;;;;;;0.00;0.00;;;;;;;-5.30;90.20;99945.07;1722790;83;21157;-47
2021/01/15 08:39:50;;;;;;;0.10;0.10;;;;;;;-5.30;90.18;99948.55;1699706;83;21143;-47
2021/01/15 08:42:18;;;;;;;0.50;0.50;;;;;;;-5.27;90.29;99948.17;1700281;82;21110;-50
2021/01/15 08:44:50;;;;;;;0.80;0.80;;;;;;;-5.22;90.12;99947.61;1729624;82;21102;-49
2021/01/15 08:47:19;;;;;;;0.50;0.50;;;;;;;-5.23;89.81;99952.12;1725304;82;21564;-49
2021/01/15 08:49:56;;;;;;;0.10;0.10;;;;;;;-5.22;89.81;99956.93;1724122;82;21142;-50
2021/01/15 08:52:29;;;;;;;0.40;0.37;;;;;;;-5.24;89.46;99959.80;1729634;82;21167;-49
2021/01/15 08:55:01;;;;;;;0.00;0.00;;;;;;;-5.23;89.39;99958.77;1729980;82;21605;-49
2021/01/15 08:57:28;;;;;;;0.20;0.20;;;;;;;-5.20;89.22;99947.73;1729994;82;21150;-49
2021/01/15 08:59:56;;;;;;;0.68;0.68;;;;;;;-5.21;88.94;99955.42;1749471;80;21545;-50
2021/01/15 09:02:24;;;;;;;0.35;0.35;;;;;;;-5.19;88.90;99956.06;1748009;81;21158;-49
2021/01/15 09:04:51;;;;;;;0.10;0.10;;;;;;;-5.16;88.81;99958.85;1667576;83;21123;-49
2021/01/15 09:07:19;;;;;;;0.30;0.30;;;;;;;-5.11;88.73;99972.95;1691931;83;21133;-49
2021/01/15 09:09:46;;;;;;;0.80;0.80;;;;;;;-5.11;88.51;99972.95;1693638;83;21151;-49
2021/01/15 09:12:14;;;;;;;0.20;0.20;;;;;;;-5.11;88.65;99977.77;1696621;81;21127;-50
2021/01/15 09:14:41;;;;;;;0.20;0.20;;;;;;;-5.08;88.70;99983.22;1719399;81;21141;-49
2021/01/15 09:17:09;;;;;;;1.32;1.25;;;;;;;-5.06;88.68;99973.20;1752031;81;21141;-50
2021/01/15 09:19:36;;;;;;;0.10;0.10;;;;;;;-5.07;88.13;99979.53;1753641;81;21099;-49
2021/01/15 09:22:07;;;;;;;0.35;0.35;;;;;;;-5.08;87.54;99977.89;1738596;82;21122;-49
2021/01/15 09:24:35;;;;;;;1.22;1.22;;;;;;;-5.08;87.30;99980.55;1739299;81;21169;-49
2021/01/15 09:27:05;;;;;;;0.10;0.10;;;;;;;-5.12;85.80;99979.27;1736107;82;21130;-49
2021/01/15 09:32:11;;;;;;;0.37;0.37;;;;;;;-5.14;84.35;99973.30;1830670;76;23353;-47
2021/01/15 09:34:38;;;;;;;0.10;0.10;;;;;;;-5.17;84.26;99975.84;1799822;78;21093;-47
2021/01/15 09:37:05;;;;;;;0.00;0.00;;;;;;;-5.08;84.30;99977.89;1810988;78;21117;-47
2021/01/15 09:39:33;;;;;;;0.10;0.10;;;;;;;-4.99;83.48;99974.09;1787539;78;21125;-46
2021/01/15 09:42:00;;;;;;;0.35;0.35;;;;;;;-4.92;82.30;99978.14;1792732;78;21118;-46
2021/01/15 09:44:28;;;;;;;0.37;0.37;;;;;;;-4.91;81.67;99980.63;1811688;78;21142;-46
2021/01/15 09:46:59;;;;;;;0.20;0.20;;;;;;;-4.92;80.89;99981.66;1801084;78;21518;-47
2021/01/15 09:49:27;;;;;;;0.05;0.05;;;;;;;-4.92;80.58;99980.32;1802311;78;21161;-46
2021/01/15 09:51:55;;;;;;;0.17;0.17;;;;;;;-4.91;80.71;99978.48;1785591;80;21146;-47
2021/01/15 09:54:22;;;;;;;0.65;0.65;;;;;;;-4.89;80.67;99981.27;1795803;78;21170;-46
2021/01/15 09:56:51;;;;;;;0.53;0.47;;;;;;;-4.84;80.97;99993.52;1793058;78;21605;-47
2021/01/15 09:59:20;;;;;;;0.15;0.15;;;;;;;-4.76;80.99;99980.05;1809462;78;21118;-46
2021/01/15 10:01:48;;;;;;;0.20;0.20;;;;;;;-4.74;80.70;99991.05;1795318;77;21182;-47
2021/01/15 10:04:16;;;;;;;0.55;0.55;;;;;;;-4.75;80.98;99998.20;1802634;78;21134;-47
2021/01/15 10:06:45;;;;;;;0.35;0.35;;;;;;;-4.77;80.86;99990.41;1805649;77;21122;-47
2021/01/15 10:09:14;;;;;;;0.30;0.30;;;;;;;-4.78;81.25;99987.92;1815465;78;21103;-47
2021/01/15 10:11:48;;;;;;;0.33;0.33;;;;;;;-4.70;81.64;99995.78;1810020;78;21119;-47
2021/01/15 10:14:16;;;;;;;0.20;0.20;;;;;;;-4.60;81.51;99998.98;1795487;78;21150;-47
2021/01/15 10:16:47;;;;;;;0.00;0.00;;;;;;;-4.58;80.82;99992.10;1812359;77;21150;-47
2021/01/15 10:19:18;;;;;;;0.27;0.27;;;;;;;-4.63;80.31;99990.52;1813848;78;21169;-47
2021/01/15 10:21:45;;;;;;;0.00;0.00;;;;;;;-4.68;80.01;99988.42;1810909;77;21464;-46
2021/01/15 10:24:14;;;;;;;0.20;0.20;;;;;;;-4.73;79.73;99983.35;1795482;78;21173;-47
2021/01/15 10:26:41;;;;;;;0.00;0.00;;;;;;;-4.75;79.49;99984.87;1812590;77;21230;-46
2021/01/15 10:29:11;;;;;;;0.00;0.00;;;;;;;-4.80;79.32;99984.13;1802297;78;21137;-49
2021/01/15 10:31:54;;;;;;;0.00;0.00;;;;;;;-4.82;79.32;99990.16;1799365;77;21143;-50
2021/01/15 10:34:23;;;;;;;0.00;0.00;;;;;;;-4.82;79.51;99990.16;1801943;77;21106;-49
2021/01/15 10:36:51;;;;;;;0.00;0.00;;;;;;;-4.83;79.64;99987.67;1796323;77;21158;-49
2021/01/15 10:39:18;;;;;;;0.10;0.10;;;;;;;-4.90;79.85;99984.93;1810721;78;21126;-49
2021/01/15 10:41:51;;;;;;;0.00;0.00;;;;;;;-4.95;80.25;99991.34;1802654;78;21718;-49
2021/01/15 10:44:19;;;;;;;1.70;0.53;;;;;;;-5.00;80.48;99995.08;1787395;78;21110;-50
2021/01/15 10:46:50;;;;;;;1.17;0.88;;;;;;;-5.08;80.19;99996.54;1812730;77;21526;-49
2021/01/15 10:49:18;;;;;;;0.50;0.50;;;;;;;-5.20;80.15;99995.69;1809252;77;21158;-50
2021/01/15 10:51:47;;;;;;;0.53;0.53;;;;;;;-5.34;79.77;99991.72;1805479;77;21118;-49
2021/01/15 10:54:15;;;;;;;0.17;0.17;;;;;;;-5.50;79.43;99994.92;1840263;77;21149;-50
2021/01/15 10:56:46;;;;;;;0.23;0.23;;;;;;;-5.67;79.11;99990.30;1808964;77;21158;-50
2021/01/15 10:59:14;;;;;;;0.65;0.65;;;;;;;-5.81;78.80;100004.47;1786132;78;21157;-47
2021/01/15 11:01:44;;;;;;;2.83;1.67;;;;;;;-5.93;79.01;100001.94;1800789;78;21118;-47
2021/01/15 11:04:14;;;;;;;0.10;0.10;;;;;;;-6.00;79.31;100002.38;1805747;78;21385;-47
2021/01/15 11:06:43;;;;;;;0.25;0.25;;;;;;;-5.99;79.69;100006.68;1809424;77;21142;-47
2021/01/15 11:09:13;;;;;;;0.10;0.10;;;;;;;-5.95;79.71;100010.64;1809190;78;21647;-47
2021/01/15 11:11:49;;;;;;;0.10;0.10;;;;;;;-5.90;79.34;100010.37;1798027;78;21134;-47
2021/01/15 11:14:19;;;;;;;0.57;0.57;;;;;;;-5.87;78.66;100006.01;1800071;78;21632;-47
2021/01/15 11:16:47;;;;;;;0.00;0.00;;;;;;;-5.88;77.99;100007.54;1805707;78;21057;-48
2021/01/15 11:19:14;;;;;;;0.10;0.10;;;;;;;-5.88;77.49;100021.66;1804554;78;21572;-47
2021/01/15 11:21:42;;;;;;;0.00;0.00;;;;;;;-5.89;76.12;100015.19;1803493;77;21131;-47
2021/01/15 11:24:12;;;;;;;0.62;0.62;;;;;;;-5.94;75.74;100013.61;1808284;77;21094;-47
2021/01/15 11:26:40;;;;;;;1.17;1.07;;;;;;;-5.99;75.38;100005.34;1823205;77;21131;-48
2021/01/15 11:29:09;;;;;;;1.40;1.05;;;;;;;-6.08;75.15;100010.77;1832138;77;21142;-48
2021/01/15 11:31:40;;;;;;;0.10;0.10;;;;;;;-6.13;75.25;100011.81;1815268;77;21149;-47
2021/01/15 11:34:09;;;;;;;0.20;0.20;;;;;;;-6.13;74.78;100009.16;1808874;78;21110;-47
2021/01/15 11:36:36;;;;;;;0.82;0.82;;;;;;;-6.14;74.58;100008.81;1802155;78;21507;-48
2021/01/15 11:39:08;;;;;;;0.28;0.28;;;;;;;-6.16;73.69;100013.99;1817706;78;21286;-47
2021/01/15 11:41:35;;;;;;;0.03;0.03;;;;;;;-6.20;72.97;100009.55;1820039;77;21137;-47
2021/01/15 11:44:05;;;;;;;0.30;0.30;;;;;;;-6.22;72.21;100020.88;1816656;78;21241;-47
2021/01/15 11:46:33;;;;;;;0.17;0.17;;;;;;;-6.24;72.11;100024.20;1823844;78;21106;-48
2021/01/15 11:49:01;;;;;;;0.00;0.00;;;;;;;-6.27;72.19;100029.39;1813912;78;21318;-47
2021/01/15 11:51:28;;;;;;;5.92;0.57;;;;;;;-6.30;71.70;100028.42;1816630;77;21091;-47
2021/01/15 11:53:55;;;;;;;0.30;0.30;;;;;;;-6.35;71.93;100031.31;1842263;77;21128;-47